sensor_id;sensor_type;location;lat;lon;timestamp;P1;durP1;ratioP1;P2;durP2;ratioP2
75700;SDS011;64321;48.796;44.740;2022-12-07T00:07:38;11.32;;;2.15;;
75700;SDS011;64321;48.796;44.740;2022-12-07T00:12:40;4.82;;;2.85;;
75700;SDS011;64321;48.796;44.740;2022-12-07T00:22:45;5.68;;;1.67;;
75700;SDS011;64321;48.796;44.740;2022-12-07T00:27:48;4.95;;;3.40;;
75700;SDS011;64321;48.796;44.740;2022-12-07T00:37:52;4.93;;;1.58;;
75700;SDS011;64321;48.796;44.740;2022-12-07T00:47:57;6.65;;;1.83;;
75700;SDS011;64321;48.796;44.740;2022-12-07T00:58:02;6.10;;;3.03;;
75700;SDS011;64321;48.796;44.740;2022-12-07T01:03:06;4.15;;;2.58;;
75700;SDS011;64321;48.796;44.740;2022-12-07T01:08:10;6.18;;;2.78;;
75700;SDS011;64321;48.796;44.740;2022-12-07T01:13:13;10.45;;;3.22;;
75700;SDS011;64321;48.796;44.740;2022-12-07T01:18:17;11.25;;;3.60;;
75700;SDS011;64321;48.796;44.740;2022-12-07T01:23:20;3.78;;;1.73;;
75700;SDS011;64321;48.796;44.740;2022-12-07T01:28:22;6.45;;;2.08;;
75700;SDS011;64321;48.796;44.740;2022-12-07T01:33:26;3.92;;;1.42;;
75700;SDS011;64321;48.796;44.740;2022-12-07T01:38:33;7.20;;;2.83;;
75700;SDS011;64321;48.796;44.740;2022-12-07T01:43:35;7.00;;;2.53;;
75700;SDS011;64321;48.796;44.740;2022-12-07T01:48:40;7.10;;;3.60;;
75700;SDS011;64321;48.796;44.740;2022-12-07T01:53:44;6.13;;;2.25;;
75700;SDS011;64321;48.796;44.740;2022-12-07T01:58:47;7.28;;;1.80;;
75700;SDS011;64321;48.796;44.740;2022-12-07T02:03:51;7.35;;;2.70;;
75700;SDS011;64321;48.796;44.740;2022-12-07T02:08:55;7.85;;;3.65;;
75700;SDS011;64321;48.796;44.740;2022-12-07T02:30:15;7.82;;;2.25;;
75700;SDS011;64321;48.796;44.740;2022-12-07T02:35:27;2.92;;;1.45;;
75700;SDS011;64321;48.796;44.740;2022-12-07T02:40:47;1.13;;;0.47;;
75700;SDS011;64321;48.796;44.740;2022-12-07T02:46:01;6.10;;;1.92;;
75700;SDS011;64321;48.796;44.740;2022-12-07T02:51:19;1.92;;;1.55;;
75700;SDS011;64321;48.796;44.740;2022-12-07T02:56:25;2.70;;;1.17;;
75700;SDS011;64321;48.796;44.740;2022-12-07T03:07:29;4.72;;;1.60;;
75700;SDS011;64321;48.796;44.740;2022-12-07T03:13:03;3.10;;;1.35;;
75700;SDS011;64321;48.796;44.740;2022-12-07T03:18:17;7.80;;;2.38;;
75700;SDS011;64321;48.796;44.740;2022-12-07T03:23:24;7.03;;;2.60;;
75700;SDS011;64321;48.796;44.740;2022-12-07T03:28:31;8.68;;;3.05;;
75700;SDS011;64321;48.796;44.740;2022-12-07T03:33:44;6.30;;;2.42;;
75700;SDS011;64321;48.796;44.740;2022-12-07T03:38:50;5.05;;;2.40;;
75700;SDS011;64321;48.796;44.740;2022-12-07T03:44:18;9.82;;;2.97;;
75700;SDS011;64321;48.796;44.740;2022-12-07T03:54:51;11.60;;;2.45;;
75700;SDS011;64321;48.796;44.740;2022-12-07T03:59:56;5.80;;;3.17;;
75700;SDS011;64321;48.796;44.740;2022-12-07T04:05:00;12.93;;;4.35;;
75700;SDS011;64321;48.796;44.740;2022-12-07T04:10:04;14.77;;;3.97;;
75700;SDS011;64321;48.796;44.740;2022-12-07T04:15:07;24.60;;;4.88;;
75700;SDS011;64321;48.796;44.740;2022-12-07T04:20:10;13.43;;;5.57;;
75700;SDS011;64321;48.796;44.740;2022-12-07T04:25:13;24.45;;;5.43;;
75700;SDS011;64321;48.796;44.740;2022-12-07T04:30:16;18.08;;;7.32;;
75700;SDS011;64321;48.796;44.740;2022-12-07T04:35:18;18.98;;;5.63;;
75700;SDS011;64321;48.796;44.740;2022-12-07T04:45:23;15.63;;;3.63;;
75700;SDS011;64321;48.796;44.740;2022-12-07T04:50:26;8.90;;;4.07;;
75700;SDS011;64321;48.796;44.740;2022-12-07T05:00:30;15.57;;;4.07;;
75700;SDS011;64321;48.796;44.740;2022-12-07T05:05:33;16.45;;;4.75;;
75700;SDS011;64321;48.796;44.740;2022-12-07T05:15:40;19.58;;;3.10;;
75700;SDS011;64321;48.796;44.740;2022-12-07T05:20:44;13.73;;;4.38;;
75700;SDS011;64321;48.796;44.740;2022-12-07T05:25:47;10.82;;;4.72;;
75700;SDS011;64321;48.796;44.740;2022-12-07T05:30:50;15.00;;;4.53;;
75700;SDS011;64321;48.796;44.740;2022-12-07T05:36:00;10.75;;;4.75;;
75700;SDS011;64321;48.796;44.740;2022-12-07T05:41:08;6.57;;;2.92;;
75700;SDS011;64321;48.796;44.740;2022-12-07T05:46:34;12.82;;;4.75;;
75700;SDS011;64321;48.796;44.740;2022-12-07T05:51:37;6.05;;;3.05;;
75700;SDS011;64321;48.796;44.740;2022-12-07T05:56:39;7.38;;;3.58;;
75700;SDS011;64321;48.796;44.740;2022-12-07T06:01:42;21.42;;;2.90;;
75700;SDS011;64321;48.796;44.740;2022-12-07T06:06:45;12.95;;;2.63;;
75700;SDS011;64321;48.796;44.740;2022-12-07T06:11:48;6.57;;;2.83;;
75700;SDS011;64321;48.796;44.740;2022-12-07T06:17:09;3.22;;;1.15;;
75700;SDS011;64321;48.796;44.740;2022-12-07T06:22:12;9.82;;;1.38;;
75700;SDS011;64321;48.796;44.740;2022-12-07T06:27:15;2.22;;;0.80;;
75700;SDS011;64321;48.796;44.740;2022-12-07T06:32:17;1.90;;;0.90;;
75700;SDS011;64321;48.796;44.740;2022-12-07T06:37:20;7.53;;;2.40;;
75700;SDS011;64321;48.796;44.740;2022-12-07T06:47:24;8.93;;;2.13;;
75700;SDS011;64321;48.796;44.740;2022-12-07T06:52:47;5.57;;;1.75;;
75700;SDS011;64321;48.796;44.740;2022-12-07T06:57:49;2.00;;;0.93;;
75700;SDS011;64321;48.796;44.740;2022-12-07T07:02:52;4.20;;;1.58;;
75700;SDS011;64321;48.796;44.740;2022-12-07T07:07:54;4.53;;;1.85;;
75700;SDS011;64321;48.796;44.740;2022-12-07T07:18:30;2.67;;;1.10;;
75700;SDS011;64321;48.796;44.740;2022-12-07T07:23:32;7.88;;;2.05;;
75700;SDS011;64321;48.796;44.740;2022-12-07T07:28:35;3.38;;;1.35;;
75700;SDS011;64321;48.796;44.740;2022-12-07T07:33:45;3.63;;;1.45;;
75700;SDS011;64321;48.796;44.740;2022-12-07T07:38:48;4.25;;;1.65;;
75700;SDS011;64321;48.796;44.740;2022-12-07T07:43:50;3.67;;;1.45;;
75700;SDS011;64321;48.796;44.740;2022-12-07T07:48:53;6.72;;;1.77;;
75700;SDS011;64321;48.796;44.740;2022-12-07T07:53:55;5.13;;;1.80;;
75700;SDS011;64321;48.796;44.740;2022-12-07T07:58:58;3.95;;;1.90;;
75700;SDS011;64321;48.796;44.740;2022-12-07T08:04:01;3.28;;;1.30;;
75700;SDS011;64321;48.796;44.740;2022-12-07T08:09:03;12.68;;;1.90;;
75700;SDS011;64321;48.796;44.740;2022-12-07T08:14:07;8.57;;;1.48;;
75700;SDS011;64321;48.796;44.740;2022-12-07T08:19:11;4.53;;;1.58;;
75700;SDS011;64321;48.796;44.740;2022-12-07T08:24:14;4.78;;;1.80;;
75700;SDS011;64321;48.796;44.740;2022-12-07T08:29:17;6.10;;;1.67;;
75700;SDS011;64321;48.796;44.740;2022-12-07T08:34:20;3.55;;;1.70;;
75700;SDS011;64321;48.796;44.740;2022-12-07T08:39:22;8.43;;;1.70;;
75700;SDS011;64321;48.796;44.740;2022-12-07T08:44:33;5.28;;;2.38;;
75700;SDS011;64321;48.796;44.740;2022-12-07T08:49:38;8.18;;;1.95;;
75700;SDS011;64321;48.796;44.740;2022-12-07T08:54:43;4.25;;;1.63;;
75700;SDS011;64321;48.796;44.740;2022-12-07T08:59:47;8.48;;;1.95;;
75700;SDS011;64321;48.796;44.740;2022-12-07T09:04:49;6.50;;;2.22;;
75700;SDS011;64321;48.796;44.740;2022-12-07T09:09:52;2.88;;;1.25;;
75700;SDS011;64321;48.796;44.740;2022-12-07T09:14:54;5.85;;;1.63;;
75700;SDS011;64321;48.796;44.740;2022-12-07T09:19:57;4.88;;;2.35;;
75700;SDS011;64321;48.796;44.740;2022-12-07T09:25:00;5.43;;;1.63;;
75700;SDS011;64321;48.796;44.740;2022-12-07T09:30:05;4.95;;;1.33;;
75700;SDS011;64321;48.796;44.740;2022-12-07T09:35:08;8.88;;;2.47;;
75700;SDS011;64321;48.796;44.740;2022-12-07T09:40:12;3.17;;;1.25;;
75700;SDS011;64321;48.796;44.740;2022-12-07T09:45:34;5.40;;;2.05;;
75700;SDS011;64321;48.796;44.740;2022-12-07T09:50:39;5.68;;;1.15;;
75700;SDS011;64321;48.796;44.740;2022-12-07T09:55:41;4.93;;;1.45;;
75700;SDS011;64321;48.796;44.740;2022-12-07T10:00:46;6.97;;;2.08;;
75700;SDS011;64321;48.796;44.740;2022-12-07T10:05:49;3.88;;;1.05;;
75700;SDS011;64321;48.796;44.740;2022-12-07T10:10:54;6.15;;;2.08;;
75700;SDS011;64321;48.796;44.740;2022-12-07T10:15:58;3.08;;;1.17;;
75700;SDS011;64321;48.796;44.740;2022-12-07T10:31:29;4.75;;;1.48;;
75700;SDS011;64321;48.796;44.740;2022-12-07T10:41:34;5.05;;;1.77;;
75700;SDS011;64321;48.796;44.740;2022-12-07T10:46:45;10.20;;;1.75;;
75700;SDS011;64321;48.796;44.740;2022-12-07T10:58:08;5.00;;;1.98;;
75700;SDS011;64321;48.796;44.740;2022-12-07T11:03:25;6.53;;;1.92;;
75700;SDS011;64321;48.796;44.740;2022-12-07T11:19:39;3.97;;;1.10;;
75700;SDS011;64321;48.796;44.740;2022-12-07T11:30:19;1.88;;;0.73;;
75700;SDS011;64321;48.796;44.740;2022-12-07T11:35:36;3.10;;;0.80;;
75700;SDS011;64321;48.796;44.740;2022-12-07T11:41:05;5.50;;;2.10;;
75700;SDS011;64321;48.796;44.740;2022-12-07T11:46:17;3.45;;;1.00;;
75700;SDS011;64321;48.796;44.740;2022-12-07T11:51:21;7.07;;;1.58;;
75700;SDS011;64321;48.796;44.740;2022-12-07T11:56:29;5.55;;;1.45;;
75700;SDS011;64321;48.796;44.740;2022-12-07T12:06:41;9.32;;;1.05;;
75700;SDS011;64321;48.796;44.740;2022-12-07T12:18:02;4.00;;;1.40;;
75700;SDS011;64321;48.796;44.740;2022-12-07T12:23:20;3.10;;;1.65;;
75700;SDS011;64321;48.796;44.740;2022-12-07T12:33:52;5.97;;;1.40;;
75700;SDS011;64321;48.796;44.740;2022-12-07T12:55:14;3.15;;;0.90;;
75700;SDS011;64321;48.796;44.740;2022-12-07T13:05:30;10.85;;;2.25;;
75700;SDS011;64321;48.796;44.740;2022-12-07T13:10:38;4.28;;;1.38;;
75700;SDS011;64321;48.796;44.740;2022-12-07T13:15:49;9.32;;;3.33;;
75700;SDS011;64321;48.796;44.740;2022-12-07T13:36:45;7.53;;;1.42;;
75700;SDS011;64321;48.796;44.740;2022-12-07T13:41:57;5.40;;;1.95;;
75700;SDS011;64321;48.796;44.740;2022-12-07T13:52:29;5.07;;;1.13;;
75700;SDS011;64321;48.796;44.740;2022-12-07T13:57:33;7.53;;;1.35;;
75700;SDS011;64321;48.796;44.740;2022-12-07T14:02:53;7.85;;;1.38;;
75700;SDS011;64321;48.796;44.740;2022-12-07T14:08:32;3.30;;;0.60;;
75700;SDS011;64321;48.796;44.740;2022-12-07T14:19:05;3.65;;;0.93;;
75700;SDS011;64321;48.796;44.740;2022-12-07T14:24:50;1.75;;;1.02;;
75700;SDS011;64321;48.796;44.740;2022-12-07T14:29:53;6.88;;;1.17;;
75700;SDS011;64321;48.796;44.740;2022-12-07T14:34:56;2.92;;;0.82;;
75700;SDS011;64321;48.796;44.740;2022-12-07T14:40:04;16.63;;;1.85;;
75700;SDS011;64321;48.796;44.740;2022-12-07T14:45:13;3.03;;;0.70;;
75700;SDS011;64321;48.796;44.740;2022-12-07T14:50:19;3.08;;;1.20;;
75700;SDS011;64321;48.796;44.740;2022-12-07T14:55:24;1.80;;;0.98;;
75700;SDS011;64321;48.796;44.740;2022-12-07T15:00:31;2.88;;;0.80;;
75700;SDS011;64321;48.796;44.740;2022-12-07T15:05:33;1.45;;;0.60;;
75700;SDS011;64321;48.796;44.740;2022-12-07T15:10:37;2.53;;;0.90;;
75700;SDS011;64321;48.796;44.740;2022-12-07T15:15:40;2.83;;;0.90;;
75700;SDS011;64321;48.796;44.740;2022-12-07T15:21:15;2.90;;;0.60;;
75700;SDS011;64321;48.796;44.740;2022-12-07T15:26:18;1.08;;;0.50;;
75700;SDS011;64321;48.796;44.740;2022-12-07T15:36:43;1.20;;;0.70;;
75700;SDS011;64321;48.796;44.740;2022-12-07T15:41:45;1.23;;;0.52;;
75700;SDS011;64321;48.796;44.740;2022-12-07T15:46:48;8.20;;;1.85;;
75700;SDS011;64321;48.796;44.740;2022-12-07T15:51:50;2.45;;;0.88;;
75700;SDS011;64321;48.796;44.740;2022-12-07T15:56:53;2.17;;;0.80;;
75700;SDS011;64321;48.796;44.740;2022-12-07T16:01:57;1.33;;;0.85;;
75700;SDS011;64321;48.796;44.740;2022-12-07T16:06:59;2.83;;;0.55;;
75700;SDS011;64321;48.796;44.740;2022-12-07T16:12:02;3.30;;;1.58;;
75700;SDS011;64321;48.796;44.740;2022-12-07T16:17:05;2.47;;;0.98;;
75700;SDS011;64321;48.796;44.740;2022-12-07T16:22:09;1.30;;;0.43;;
75700;SDS011;64321;48.796;44.740;2022-12-07T16:27:11;5.13;;;1.60;;
75700;SDS011;64321;48.796;44.740;2022-12-07T16:32:14;2.28;;;1.08;;
75700;SDS011;64321;48.796;44.740;2022-12-07T16:42:19;0.60;;;0.28;;
75700;SDS011;64321;48.796;44.740;2022-12-07T16:47:21;3.25;;;1.65;;
75700;SDS011;64321;48.796;44.740;2022-12-07T16:52:24;3.17;;;1.13;;
75700;SDS011;64321;48.796;44.740;2022-12-07T17:02:28;3.38;;;0.85;;
75700;SDS011;64321;48.796;44.740;2022-12-07T17:12:33;4.63;;;2.00;;
75700;SDS011;64321;48.796;44.740;2022-12-07T17:17:36;4.00;;;1.02;;
75700;SDS011;64321;48.796;44.740;2022-12-07T17:27:41;1.08;;;0.55;;
75700;SDS011;64321;48.796;44.740;2022-12-07T17:32:44;0.95;;;0.40;;
75700;SDS011;64321;48.796;44.740;2022-12-07T17:37:47;5.32;;;1.35;;
75700;SDS011;64321;48.796;44.740;2022-12-07T17:42:52;1.75;;;0.52;;
75700;SDS011;64321;48.796;44.740;2022-12-07T17:47:54;2.30;;;0.65;;
75700;SDS011;64321;48.796;44.740;2022-12-07T17:58:14;2.00;;;0.88;;
75700;SDS011;64321;48.796;44.740;2022-12-07T18:03:16;3.08;;;1.02;;
75700;SDS011;64321;48.796;44.740;2022-12-07T18:08:19;4.68;;;1.80;;
75700;SDS011;64321;48.796;44.740;2022-12-07T18:13:21;5.38;;;1.52;;
75700;SDS011;64321;48.796;44.740;2022-12-07T18:18:39;2.83;;;1.33;;
75700;SDS011;64321;48.796;44.740;2022-12-07T18:23:47;2.35;;;1.05;;
75700;SDS011;64321;48.796;44.740;2022-12-07T18:28:51;2.38;;;1.17;;
75700;SDS011;64321;48.796;44.740;2022-12-07T18:33:53;5.13;;;1.80;;
75700;SDS011;64321;48.796;44.740;2022-12-07T18:38:57;2.03;;;0.88;;
75700;SDS011;64321;48.796;44.740;2022-12-07T18:44:00;2.80;;;1.20;;
75700;SDS011;64321;48.796;44.740;2022-12-07T18:49:06;5.38;;;1.50;;
75700;SDS011;64321;48.796;44.740;2022-12-07T18:54:08;2.28;;;0.80;;
75700;SDS011;64321;48.796;44.740;2022-12-07T18:59:12;4.40;;;1.40;;
75700;SDS011;64321;48.796;44.740;2022-12-07T19:04:33;3.22;;;0.73;;
75700;SDS011;64321;48.796;44.740;2022-12-07T19:09:36;6.90;;;2.03;;
75700;SDS011;64321;48.796;44.740;2022-12-07T19:14:39;2.63;;;1.13;;
75700;SDS011;64321;48.796;44.740;2022-12-07T19:19:42;10.77;;;1.85;;
75700;SDS011;64321;48.796;44.740;2022-12-07T19:24:52;5.35;;;2.13;;
75700;SDS011;64321;48.796;44.740;2022-12-07T19:29:56;2.58;;;1.08;;
75700;SDS011;64321;48.796;44.740;2022-12-07T19:34:59;2.42;;;0.73;;
75700;SDS011;64321;48.796;44.740;2022-12-07T19:40:02;5.05;;;1.73;;
75700;SDS011;64321;48.796;44.740;2022-12-07T19:45:06;1.25;;;0.63;;
75700;SDS011;64321;48.796;44.740;2022-12-07T19:50:09;4.50;;;1.50;;
75700;SDS011;64321;48.796;44.740;2022-12-07T19:55:11;2.65;;;1.13;;
75700;SDS011;64321;48.796;44.740;2022-12-07T20:00:14;3.88;;;0.82;;
75700;SDS011;64321;48.796;44.740;2022-12-07T20:05:17;3.45;;;1.20;;
75700;SDS011;64321;48.796;44.740;2022-12-07T20:10:19;3.03;;;1.13;;
75700;SDS011;64321;48.796;44.740;2022-12-07T20:15:27;2.95;;;0.85;;
75700;SDS011;64321;48.796;44.740;2022-12-07T20:20:29;4.28;;;0.93;;
75700;SDS011;64321;48.796;44.740;2022-12-07T20:30:36;6.60;;;1.67;;
75700;SDS011;64321;48.796;44.740;2022-12-07T20:35:39;9.27;;;2.22;;
75700;SDS011;64321;48.796;44.740;2022-12-07T20:45:51;5.53;;;1.38;;
75700;SDS011;64321;48.796;44.740;2022-12-07T20:50:53;4.88;;;0.82;;
75700;SDS011;64321;48.796;44.740;2022-12-07T20:56:06;3.83;;;1.20;;
75700;SDS011;64321;48.796;44.740;2022-12-07T21:01:18;4.65;;;1.67;;
75700;SDS011;64321;48.796;44.740;2022-12-07T21:06:20;8.05;;;2.28;;
75700;SDS011;64321;48.796;44.740;2022-12-07T21:11:23;6.25;;;1.58;;
75700;SDS011;64321;48.796;44.740;2022-12-07T21:16:28;4.85;;;1.52;;
75700;SDS011;64321;48.796;44.740;2022-12-07T21:21:32;4.38;;;1.55;;
75700;SDS011;64321;48.796;44.740;2022-12-07T21:26:35;5.30;;;1.95;;
75700;SDS011;64321;48.796;44.740;2022-12-07T21:36:40;5.10;;;1.90;;
75700;SDS011;64321;48.796;44.740;2022-12-07T21:46:44;6.47;;;1.77;;
75700;SDS011;64321;48.796;44.740;2022-12-07T21:51:47;3.67;;;1.30;;
75700;SDS011;64321;48.796;44.740;2022-12-07T21:56:49;8.00;;;1.90;;
75700;SDS011;64321;48.796;44.740;2022-12-07T22:01:52;5.00;;;1.67;;
75700;SDS011;64321;48.796;44.740;2022-12-07T22:12:00;3.30;;;1.45;;
75700;SDS011;64321;48.796;44.740;2022-12-07T22:17:02;4.13;;;1.90;;
75700;SDS011;64321;48.796;44.740;2022-12-07T22:22:05;3.60;;;1.88;;
75700;SDS011;64321;48.796;44.740;2022-12-07T22:27:08;2.13;;;1.08;;
75700;SDS011;64321;48.796;44.740;2022-12-07T22:32:10;5.18;;;1.85;;
75700;SDS011;64321;48.796;44.740;2022-12-07T22:37:33;8.25;;;2.00;;
75700;SDS011;64321;48.796;44.740;2022-12-07T22:47:38;4.82;;;1.52;;
75700;SDS011;64321;48.796;44.740;2022-12-07T22:52:41;1.48;;;0.38;;
75700;SDS011;64321;48.796;44.740;2022-12-07T22:57:44;4.03;;;0.82;;
75700;SDS011;64321;48.796;44.740;2022-12-07T23:02:46;6.05;;;1.92;;
75700;SDS011;64321;48.796;44.740;2022-12-07T23:12:51;0.70;;;0.25;;
75700;SDS011;64321;48.796;44.740;2022-12-07T23:23:15;2.55;;;0.85;;
75700;SDS011;64321;48.796;44.740;2022-12-07T23:28:18;7.35;;;2.60;;
75700;SDS011;64321;48.796;44.740;2022-12-07T23:33:21;5.25;;;1.38;;
75700;SDS011;64321;48.796;44.740;2022-12-07T23:38:25;5.93;;;1.67;;
75700;SDS011;64321;48.796;44.740;2022-12-07T23:43:27;2.42;;;0.82;;
75700;SDS011;64321;48.796;44.740;2022-12-07T23:48:30;3.08;;;1.52;;
75700;SDS011;64321;48.796;44.740;2022-12-07T23:53:33;1.65;;;0.70;;
75700;SDS011;64321;48.796;44.740;2022-12-07T23:58:39;4.63;;;1.17;;
